Time;durP1;ratioP1;P1;durP2;ratioP2;P2;SDS_P1;SDS_P2;PMS_P1;PMS_P2;Temp;Humidity;BMP_temperature;BMP_pressure;BME280_temperature;BME280_humidity;BME280_pressure;Samples;Min_cycle;Max_cycle;Signal;HPM_P1;HPM_P2
2021/08/17 00:00:10;;;;;;;4.22;3.80;;;21.00;72.10;;;;;;5084324;28;20276;-83
2021/08/17 00:02:38;;;;;;;4.10;3.70;;;21.10;72.10;;;;;;5085893;28;20176;-80
2021/08/17 00:05:04;;;;;;;4.57;3.63;;;21.10;72.10;;;;;;5103326;28;20194;-80
2021/08/17 00:07:30;;;;;;;5.68;3.97;;;21.00;72.00;;;;;;5108272;28;20623;-83
2021/08/17 00:09:56;;;;;;;4.05;3.42;;;21.10;72.00;;;;;;5124926;28;20174;-83
2021/08/17 00:12:22;;;;;;;4.55;3.75;;;21.10;72.00;;;;;;5090184;27;20214;-81
2021/08/17 00:14:48;;;;;;;3.80;3.38;;;21.10;71.90;;;;;;5027599;28;20162;-82
2021/08/17 00:17:15;;;;;;;3.90;3.50;;;21.10;71.90;;;;;;5011217;28;20166;-81
2021/08/17 00:19:43;;;;;;;4.30;3.90;;;21.10;72.00;;;;;;5027535;28;20620;-80
2021/08/17 00:22:10;;;;;;;4.65;3.45;;;21.10;71.80;;;;;;5012712;28;20613;-79
2021/08/17 00:24:38;;;;;;;4.03;3.58;;;21.10;71.80;;;;;;5028485;28;20232;-80
2021/08/17 00:27:07;;;;;;;4.05;3.65;;;21.10;71.80;;;;;;5011924;28;20170;-80
2021/08/17 00:29:35;;;;;;;3.97;3.47;;;21.10;71.80;;;;;;5079153;28;20188;-84
2021/08/17 00:32:01;;;;;;;4.32;3.65;;;21.20;71.80;;;;;;5028031;28;20205;-80
2021/08/17 00:34:29;;;;;;;4.18;3.78;;;21.20;71.70;;;;;;5011541;28;20217;-80
2021/08/17 00:36:58;;;;;;;4.50;3.90;;;21.10;71.70;;;;;;5011116;28;20182;-82
2021/08/17 00:39:26;;;;;;;4.18;3.78;;;21.10;71.70;;;;;;5045304;28;20186;-79
2021/08/17 00:41:52;;;;;;;4.65;4.03;;;21.20;71.70;;;;;;5011924;28;20219;-80
2021/08/17 00:44:24;;;;;;;4.47;3.97;;;21.20;71.70;;;;;;5012194;28;20544;-81
2021/08/17 00:46:50;;;;;;;4.35;3.85;;;21.20;71.70;;;;;;5044753;28;20165;-80
2021/08/17 00:49:17;;;;;;;4.68;3.72;;;21.20;71.70;;;;;;5027867;28;20229;-80
2021/08/17 00:51:44;;;;;;;3.88;3.42;;;21.20;71.60;;;;;;5027921;28;20204;-81
2021/08/17 00:54:09;;;;;;;4.60;3.88;;;21.10;71.60;;;;;;5011666;28;20166;-82
2021/08/17 00:56:37;;;;;;;4.60;3.67;;;21.20;71.60;;;;;;5011713;28;20166;-80
2021/08/17 00:59:05;;;;;;;4.97;4.03;;;21.20;71.60;;;;;;5012354;28;20158;-80
2021/08/17 01:01:34;;;;;;;4.35;3.95;;;21.20;71.50;;;;;;5044494;28;20185;-83
2021/08/17 01:04:04;;;;;;;4.20;3.70;;;21.20;71.50;;;;;;4994052;28;20182;-82
2021/08/17 01:06:34;;;;;;;4.20;3.60;;;21.20;71.40;;;;;;4994000;28;20629;-82
2021/08/17 01:09:04;;;;;;;4.28;3.58;;;21.20;71.40;;;;;;4994691;28;20177;-82
2021/08/17 01:11:33;;;;;;;4.25;3.72;;;21.20;71.40;;;;;;5062333;28;20221;-80
2021/08/17 01:13:58;;;;;;;4.43;3.63;;;21.20;71.40;;;;;;5026769;28;20708;-82
2021/08/17 01:16:24;;;;;;;4.60;3.75;;;21.20;71.40;;;;;;5011455;28;20174;-81
2021/08/17 01:18:50;;;;;;;4.10;3.70;;;21.20;71.40;;;;;;5027884;28;20166;-80
2021/08/17 01:21:19;;;;;;;4.18;3.63;;;21.20;71.30;;;;;;5027905;28;20166;-81
2021/08/17 01:23:49;;;;;;;4.13;3.72;;;21.20;71.30;;;;;;5079267;28;20213;-80
2021/08/17 01:26:21;;;;;;;4.72;3.88;;;21.20;71.20;;;;;;5026520;28;20185;-80
2021/08/17 01:28:49;;;;;;;4.20;3.50;;;21.30;71.30;;;;;;5009767;28;20633;-82
2021/08/17 01:31:19;;;;;;;4.32;3.75;;;21.30;71.30;;;;;;5009815;28;20213;-80
2021/08/17 01:33:47;;;;;;;5.13;3.90;;;21.30;71.20;;;;;;4994707;28;20186;-80
2021/08/17 01:36:15;;;;;;;6.45;3.80;;;21.30;71.20;;;;;;4993865;28;20197;-82
2021/08/17 01:38:49;;;;;;;4.05;3.65;;;21.30;71.20;;;;;;5026669;28;20235;-80
2021/08/17 01:41:16;;;;;;;4.30;3.90;;;21.30;71.30;;;;;;5042803;28;20176;-81
2021/08/17 01:43:44;;;;;;;4.30;3.72;;;21.30;71.20;;;;;;5010152;28;20171;-80
2021/08/17 01:46:13;;;;;;;5.00;4.28;;;21.30;71.20;;;;;;5009884;28;20197;-81
2021/08/17 01:48:39;;;;;;;5.07;4.00;;;21.20;71.10;;;;;;5043515;28;20154;-81
2021/08/17 01:51:06;;;;;;;5.65;4.10;;;21.30;71.20;;;;;;5026769;28;20162;-79
2021/08/17 01:53:32;;;;;;;4.45;3.92;;;21.30;71.20;;;;;;5027103;28;20207;-82
2021/08/17 01:56:04;;;;;;;5.18;4.15;;;21.30;71.10;;;;;;5010774;28;20158;-80
2021/08/17 01:58:31;;;;;;;4.70;3.95;;;21.30;71.10;;;;;;5028170;28;20203;-80
2021/08/17 02:00:56;;;;;;;4.45;3.78;;;21.30;71.10;;;;;;5009843;28;20188;-81
2021/08/17 02:03:23;;;;;;;4.07;3.65;;;21.30;71.10;;;;;;5010526;28;20574;-79
2021/08/17 02:05:49;;;;;;;5.07;4.13;;;21.30;71.00;;;;;;5027342;28;20255;-83
2021/08/17 02:08:19;;;;;;;4.88;3.80;;;21.30;71.00;;;;;;5027484;28;20155;-82
2021/08/17 02:10:48;;;;;;;4.18;3.53;;;21.30;71.00;;;;;;5078229;28;20189;-80
2021/08/17 02:13:16;;;;;;;5.30;4.10;;;21.30;71.00;;;;;;5001996;28;20227;-80
2021/08/17 02:15:47;;;;;;;4.95;4.10;;;21.30;71.00;;;;;;5003945;28;20199;-79
2021/08/17 02:18:20;;;;;;;5.18;3.80;;;21.30;70.90;;;;;;5071655;28;20205;-83
2021/08/17 02:20:49;;;;;;;4.90;4.03;;;21.30;70.90;;;;;;5053676;28;20179;-80
2021/08/17 02:23:17;;;;;;;4.78;3.83;;;21.30;70.90;;;;;;5002834;28;20186;-80
2021/08/17 02:25:45;;;;;;;4.72;3.92;;;21.30;70.80;;;;;;5003401;28;20183;-81
2021/08/17 02:28:11;;;;;;;4.80;3.58;;;21.30;70.80;;;;;;5003906;28;20231;-80
2021/08/17 02:30:37;;;;;;;4.10;3.60;;;21.40;70.90;;;;;;4987379;28;20236;-80
2021/08/17 02:33:03;;;;;;;4.80;4.00;;;21.30;70.80;;;;;;5003823;28;20195;-80
2021/08/17 02:35:29;;;;;;;4.50;3.75;;;21.40;70.80;;;;;;5021508;28;20518;-81
2021/08/17 02:37:54;;;;;;;4.97;4.20;;;21.30;70.70;;;;;;5003970;28;20151;-79
2021/08/17 02:40:20;;;;;;;4.45;3.72;;;21.40;70.70;;;;;;4987744;28;20184;-80
2021/08/17 02:42:47;;;;;;;4.95;4.05;;;21.40;70.70;;;;;;5003922;28;20174;-82
2021/08/17 02:45:14;;;;;;;4.95;3.92;;;21.40;70.70;;;;;;5019500;28;20163;-81
2021/08/17 02:47:41;;;;;;;5.28;3.95;;;21.40;70.70;;;;;;5003152;28;20179;-80
2021/08/17 02:50:11;;;;;;;4.82;4.00;;;21.40;70.70;;;;;;5004129;28;20171;-80
2021/08/17 02:52:38;;;;;;;4.65;3.80;;;21.40;70.60;;;;;;5054660;28;20215;-80
2021/08/17 02:55:10;;;;;;;4.70;3.88;;;21.40;70.60;;;;;;5004332;28;20171;-80
2021/08/17 02:57:36;;;;;;;4.45;3.90;;;21.40;70.60;;;;;;5004218;28;20168;-79
2021/08/17 03:00:07;;;;;;;4.70;4.18;;;21.40;71.40;;;;;;5003951;28;20163;-81
2021/08/17 03:02:33;;;;;;;4.30;3.90;;;21.40;70.60;;;;;;4986620;28;20187;-80
2021/08/17 03:05:00;;;;;;;4.13;3.60;;;21.40;70.60;;;;;;5004660;28;20171;-79
2021/08/17 03:07:26;;;;;;;3.90;3.50;;;21.40;70.50;;;;;;4988139;28;20603;-82
2021/08/17 03:09:52;;;;;;;4.97;3.67;;;21.50;70.60;;;;;;5019776;28;20177;-80
2021/08/17 03:12:17;;;;;;;3.95;3.50;;;21.40;70.50;;;;;;5020332;28;20251;-81
2021/08/17 03:14:43;;;;;;;5.18;4.07;;;21.40;70.50;;;;;;5003605;28;20230;-81
2021/08/17 03:17:09;;;;;;;4.35;3.90;;;21.40;70.50;;;;;;4987266;28;20171;-80
2021/08/17 03:19:35;;;;;;;5.22;4.00;;;21.50;70.50;;;;;;5019864;28;20216;-79
2021/08/17 03:22:02;;;;;;;4.90;4.15;;;21.40;70.40;;;;;;5002552;28;20272;-80
2021/08/17 03:24:29;;;;;;;5.80;4.20;;;21.40;70.50;;;;;;4985508;28;20175;-80
2021/08/17 03:26:55;;;;;;;4.93;4.03;;;21.50;70.60;;;;;;5000909;28;20163;-81
2021/08/17 03:29:26;;;;;;;4.95;3.95;;;21.40;70.50;;;;;;5000269;28;20160;-80
2021/08/17 03:31:55;;;;;;;4.97;4.10;;;21.40;70.50;;;;;;5017280;28;20217;-80
2021/08/17 03:34:22;;;;;;;4.88;4.03;;;21.40;70.50;;;;;;5000592;28;20191;-81
2021/08/17 03:36:48;;;;;;;4.20;3.65;;;21.40;70.60;;;;;;4984749;28;20171;-80
2021/08/17 03:39:18;;;;;;;5.28;4.03;;;21.40;70.60;;;;;;5019772;28;20155;-80
2021/08/17 03:41:46;;;;;;;5.13;4.28;;;21.40;70.50;;;;;;5072293;28;20191;-82
2021/08/17 03:44:15;;;;;;;5.72;3.90;;;21.40;70.50;;;;;;4989021;28;20185;-81
2021/08/17 03:46:43;;;;;;;5.43;4.05;;;21.40;70.60;;;;;;5072352;28;20266;-81
2021/08/17 03:49:09;;;;;;;4.13;3.70;;;21.40;70.50;;;;;;4986879;28;20255;-83
2021/08/17 03:51:34;;;;;;;5.38;4.03;;;21.40;70.60;;;;;;4987956;28;20291;-80
2021/08/17 03:54:01;;;;;;;4.90;4.15;;;21.40;70.60;;;;;;5021460;28;20175;-79
2021/08/17 03:56:27;;;;;;;6.75;4.43;;;21.50;70.60;;;;;;5005154;28;20159;-82
2021/08/17 03:58:53;;;;;;;4.85;4.10;;;21.40;70.60;;;;;;4987755;28;20193;-81
2021/08/17 04:01:20;;;;;;;6.00;4.30;;;21.40;70.60;;;;;;4989363;28;20212;-80
2021/08/17 04:03:45;;;;;;;4.97;4.15;;;21.40;70.60;;;;;;4990328;28;20645;-80
2021/08/17 04:06:11;;;;;;;5.20;4.13;;;21.40;70.70;;;;;;5006450;28;20171;-79
2021/08/17 04:08:40;;;;;;;7.05;4.50;;;21.40;70.70;;;;;;4991190;28;20195;-82
2021/08/17 04:11:08;;;;;;;5.53;4.55;;;21.30;70.70;;;;;;5022258;28;20172;-80
2021/08/17 04:13:34;;;;;;;5.38;4.03;;;21.40;70.80;;;;;;5113625;28;20690;-80
2021/08/17 04:16:02;;;;;;;4.90;4.22;;;21.40;70.90;;;;;;5126326;28;20223;-81
2021/08/17 04:18:32;;;;;;;4.78;4.00;;;21.40;71.00;;;;;;5090802;28;20245;-79
2021/08/17 04:21:02;;;;;;;5.20;4.05;;;21.40;71.40;;;;;;5107167;28;20267;-81
2021/08/17 04:23:32;;;;;;;4.28;3.83;;;21.30;71.80;;;;;;5107920;28;20199;-80
2021/08/17 04:26:00;;;;;;;4.25;3.85;;;21.30;72.10;;;;;;5090566;28;20207;-82
2021/08/17 04:28:27;;;;;;;4.60;3.65;;;21.30;72.50;;;;;;5105906;28;20210;-81
2021/08/17 04:30:53;;;;;;;3.88;3.53;;;21.20;73.00;;;;;;5124052;28;20164;-82
2021/08/17 04:33:18;;;;;;;4.47;3.63;;;21.10;73.50;;;;;;5106689;28;20195;-81
2021/08/17 04:35:46;;;;;;;4.60;3.95;;;21.10;73.90;;;;;;5108044;28;20255;-82
2021/08/17 04:38:12;;;;;;;4.45;3.92;;;21.10;73.80;;;;;;5124593;28;20152;-81
2021/08/17 04:40:40;;;;;;;4.20;3.58;;;21.10;74.50;;;;;;5124795;28;20186;-81
2021/08/17 04:43:05;;;;;;;4.15;3.67;;;21.00;75.60;;;;;;5107791;28;20683;-80
2021/08/17 04:45:33;;;;;;;3.83;3.47;;;21.00;75.20;;;;;;5125244;28;20207;-81
2021/08/17 04:48:00;;;;;;;4.40;3.75;;;21.10;75.30;;;;;;5124870;28;20163;-80
2021/08/17 04:50:29;;;;;;;4.13;3.53;;;21.00;75.60;;;;;;5091634;28;20216;-81
2021/08/17 04:52:58;;;;;;;4.15;3.75;;;21.00;75.70;;;;;;5123028;28;20254;-80
2021/08/17 04:55:28;;;;;;;4.40;3.60;;;21.00;76.00;;;;;;5107517;28;20184;-83
2021/08/17 04:57:59;;;;;;;4.65;3.75;;;20.90;76.20;;;;;;5090110;28;20180;-80
2021/08/17 05:00:31;;;;;;;3.45;3.15;;;20.90;76.30;;;;;;5122732;28;20253;-81
2021/08/17 05:03:00;;;;;;;3.58;3.25;;;20.90;76.70;;;;;;5089491;28;20184;-81
2021/08/17 05:05:28;;;;;;;3.90;3.50;;;20.80;77.00;;;;;;5105727;28;20199;-81
2021/08/17 05:07:54;;;;;;;4.00;3.60;;;20.80;77.10;;;;;;5105719;28;20191;-80
2021/08/17 05:10:25;;;;;;;3.78;3.33;;;20.80;77.20;;;;;;5106524;28;20171;-82
2021/08/17 05:12:53;;;;;;;3.75;3.45;;;20.80;77.40;;;;;;5091064;28;20222;-80
2021/08/17 05:15:20;;;;;;;3.95;3.60;;;20.80;77.50;;;;;;5091973;28;20185;-81
2021/08/17 05:17:50;;;;;;;3.53;3.22;;;20.70;77.70;;;;;;5073899;28;20183;-82
2021/08/17 05:20:18;;;;;;;3.70;3.40;;;20.80;78.00;;;;;;5091237;28;20185;-81
2021/08/17 05:22:46;;;;;;;3.65;3.30;;;20.70;78.20;;;;;;5075156;28;20207;-81
2021/08/17 05:25:14;;;;;;;3.83;3.42;;;20.70;78.30;;;;;;5059125;28;20178;-81
2021/08/17 05:27:41;;;;;;;3.80;3.40;;;20.80;78.50;;;;;;5076073;28;20216;-81
2021/08/17 05:30:09;;;;;;;3.50;3.20;;;20.70;78.70;;;;;;5092554;28;20269;-80
2021/08/17 05:32:37;;;;;;;3.92;3.33;;;20.70;78.70;;;;;;5075655;28;20315;-80
2021/08/17 05:35:05;;;;;;;3.20;2.90;;;20.70;78.90;;;;;;5093151;28;20653;-80
2021/08/17 05:37:32;;;;;;;3.55;3.25;;;20.70;79.10;;;;;;5077898;28;20182;-78
2021/08/17 05:40:03;;;;;;;3.58;3.25;;;20.70;79.20;;;;;;5094593;28;20179;-78
2021/08/17 05:42:32;;;;;;;3.40;3.10;;;20.60;79.40;;;;;;5092759;28;20190;-80
2021/08/17 05:44:59;;;;;;;3.33;3.00;;;20.60;79.60;;;;;;5111295;28;20186;-80
2021/08/17 05:47:32;;;;;;;3.55;3.25;;;20.60;79.60;;;;;;5092474;28;20245;-79
2021/08/17 05:49:59;;;;;;;3.95;3.55;;;20.60;79.90;;;;;;5093558;28;20218;-80
2021/08/17 05:52:26;;;;;;;3.40;3.10;;;20.60;80.00;;;;;;5075371;28;20222;-80
2021/08/17 05:54:52;;;;;;;3.70;3.40;;;20.60;80.20;;;;;;5075496;28;20252;-80
2021/08/17 05:57:18;;;;;;;3.28;2.97;;;20.60;80.30;;;;;;5073262;28;20198;-80
2021/08/17 05:59:48;;;;;;;3.67;3.38;;;20.60;80.40;;;;;;5008204;28;20163;-80
2021/08/17 06:02:14;;;;;;;3.30;3.00;;;20.60;80.50;;;;;;5071875;28;20195;-80
2021/08/17 06:04:41;;;;;;;3.60;3.30;;;20.50;80.60;;;;;;4988709;28;20179;-81
2021/08/17 06:07:16;;;;;;;3.50;3.20;;;20.50;80.80;;;;;;5036958;28;20174;-80
2021/08/17 06:09:41;;;;;;;3.17;2.88;;;20.50;80.90;;;;;;5071419;28;20226;-80
2021/08/17 06:12:07;;;;;;;3.38;3.08;;;20.60;81.00;;;;;;5025267;28;20217;-80
2021/08/17 06:14:37;;;;;;;3.53;3.22;;;20.60;80.90;;;;;;5018124;28;20585;-80
2021/08/17 06:17:07;;;;;;;3.20;2.95;;;20.60;80.80;;;;;;5090648;28;20187;-79
2021/08/17 06:19:39;;;;;;;3.17;2.92;;;20.60;80.50;;;;;;4988947;28;20187;-80
2021/08/17 06:22:07;;;;;;;3.30;3.00;;;20.70;80.10;;;;;;5002037;28;20221;-81
2021/08/17 06:24:32;;;;;;;3.72;3.42;;;20.80;79.70;;;;;;5024481;28;20189;-80
2021/08/17 06:26:59;;;;;;;3.88;3.22;;;20.90;79.80;;;;;;5006199;28;20206;-80
2021/08/17 06:29:32;;;;;;;3.75;3.35;;;20.90;79.70;;;;;;5005376;28;20254;-80
2021/08/17 06:31:59;;;;;;;3.25;3.03;;;21.00;80.00;;;;;;5009893;28;20215;-82
2021/08/17 06:34:26;;;;;;;4.45;3.08;;;21.00;79.70;;;;;;5093118;28;20183;-80
2021/08/17 06:36:53;;;;;;;3.45;3.15;;;21.00;80.30;;;;;;5093545;28;20179;-81
2021/08/17 06:39:20;;;;;;;3.53;3.22;;;21.00;79.70;;;;;;5017744;28;20214;-80
2021/08/17 06:41:52;;;;;;;3.53;3.22;;;21.10;80.10;;;;;;4980419;28;20217;-81
2021/08/17 06:44:24;;;;;;;3.75;3.08;;;21.10;79.90;;;;;;5006572;28;20244;-78
2021/08/17 06:46:55;;;;;;;3.55;3.25;;;21.00;80.70;;;;;;5107597;28;20190;-81
2021/08/17 06:49:25;;;;;;;3.20;2.90;;;21.00;80.30;;;;;;5111451;28;20250;-78
2021/08/17 06:51:52;;;;;;;3.55;3.10;;;21.00;80.60;;;;;;5059683;28;20325;-81
2021/08/17 06:54:22;;;;;;;3.88;3.00;;;21.00;80.40;;;;;;5075854;28;20529;-80
2021/08/17 06:56:47;;;;;;;3.40;3.10;;;21.00;80.50;;;;;;5073160;28;20183;-81
2021/08/17 06:59:15;;;;;;;4.45;3.15;;;21.00;80.50;;;;;;5027706;28;20182;-80
2021/08/17 07:01:42;;;;;;;3.60;3.30;;;21.10;80.30;;;;;;5008488;28;20269;-79
2021/08/17 07:04:08;;;;;;;3.45;3.13;;;21.10;80.40;;;;;;5041847;28;20238;-79
2021/08/17 07:06:35;;;;;;;3.47;3.17;;;21.00;80.20;;;;;;5042084;28;20267;-79
2021/08/17 07:09:06;;;;;;;2.97;2.78;;;21.00;80.30;;;;;;5040546;28;20154;-79
2021/08/17 07:11:36;;;;;;;3.88;3.58;;;21.00;80.70;;;;;;5092074;28;20580;-80
2021/08/17 07:14:02;;;;;;;3.60;3.03;;;21.00;80.40;;;;;;5075681;28;20261;-80
2021/08/17 07:16:28;;;;;;;3.08;2.88;;;21.10;80.70;;;;;;5023889;28;20162;-80
2021/08/17 07:18:54;;;;;;;3.05;2.78;;;21.20;80.10;;;;;;5040547;28;20159;-79
2021/08/17 07:21:20;;;;;;;3.97;2.90;;;21.10;80.10;;;;;;5041585;28;20242;-78
2021/08/17 07:23:50;;;;;;;3.00;2.80;;;21.20;80.10;;;;;;5041444;28;20158;-79
2021/08/17 07:26:21;;;;;;;3.10;2.90;;;21.30;79.90;;;;;;5092777;28;20190;-79
2021/08/17 07:28:47;;;;;;;4.05;2.90;;;21.30;79.60;;;;;;5090167;28;20183;-80
2021/08/17 07:31:13;;;;;;;3.22;2.92;;;21.20;79.80;;;;;;5041286;28;20158;-79
2021/08/17 07:33:39;;;;;;;3.05;2.80;;;21.20;79.30;;;;;;5040236;28;20154;-80
2021/08/17 07:36:10;;;;;;;4.60;3.13;;;21.20;79.60;;;;;;5039926;28;20155;-79
2021/08/17 07:38:43;;;;;;;3.25;2.85;;;21.10;79.60;;;;;;5002703;28;20179;-80
2021/08/17 07:41:10;;;;;;;2.70;2.50;;;21.00;80.20;;;;;;5095834;28;20244;-79
2021/08/17 07:43:38;;;;;;;3.13;2.83;;;21.10;79.70;;;;;;5021333;28;20639;-82
2021/08/17 07:46:08;;;;;;;3.03;2.72;;;21.30;79.50;;;;;;5021364;28;20231;-79
2021/08/17 07:48:35;;;;;;;3.00;2.70;;;21.20;79.60;;;;;;5089880;28;20664;-79
2021/08/17 07:51:10;;;;;;;3.33;2.60;;;21.10;79.60;;;;;;5021470;28;20163;-80
2021/08/17 07:53:43;;;;;;;3.03;2.72;;;21.10;79.70;;;;;;5088820;28;20199;-79
2021/08/17 07:56:10;;;;;;;3.05;2.75;;;21.10;80.20;;;;;;5007538;28;20179;-79
2021/08/17 07:58:36;;;;;;;5.18;2.78;;;21.10;80.10;;;;;;5008606;28;20194;-80
2021/08/17 08:01:03;;;;;;;2.58;2.38;;;21.10;79.90;;;;;;5020775;28;20171;-82
2021/08/17 08:03:39;;;;;;;2.58;2.38;;;21.10;79.50;;;;;;5027010;28;20179;-80
2021/08/17 08:06:11;;;;;;;2.60;2.40;;;21.00;80.20;;;;;;5073744;28;20213;-79
2021/08/17 08:08:39;;;;;;;2.97;2.47;;;21.10;78.90;;;;;;5002590;28;20251;-79
2021/08/17 08:11:05;;;;;;;2.88;2.60;;;21.10;78.80;;;;;;5033676;28;20189;-79
2021/08/17 08:13:31;;;;;;;2.65;2.45;;;21.10;79.30;;;;;;5040816;28;20256;-80
2021/08/17 08:15:57;;;;;;;2.60;2.40;;;21.10;79.10;;;;;;5035006;28;20175;-81
2021/08/17 08:18:27;;;;;;;3.80;2.50;;;21.10;78.90;;;;;;5036869;28;20648;-81
2021/08/17 08:20:54;;;;;;;2.65;2.45;;;21.10;78.60;;;;;;5022945;28;20174;-79
2021/08/17 08:23:20;;;;;;;4.20;2.45;;;21.10;78.50;;;;;;5041050;28;20219;-79
2021/08/17 08:25:49;;;;;;;3.15;2.45;;;21.10;78.30;;;;;;5041662;28;20160;-79
2021/08/17 08:28:15;;;;;;;3.17;2.38;;;21.10;78.50;;;;;;5063203;28;20215;-80
2021/08/17 08:30:44;;;;;;;2.58;2.35;;;21.10;78.60;;;;;;5027882;28;20178;-79
2021/08/17 08:33:13;;;;;;;3.00;2.70;;;21.10;78.10;;;;;;5075570;28;20248;-79
2021/08/17 08:35:43;;;;;;;3.80;2.60;;;21.10;78.30;;;;;;5076155;28;20187;-80
2021/08/17 08:38:09;;;;;;;2.80;2.50;;;21.00;78.70;;;;;;5028835;28;20170;-80
2021/08/17 08:40:37;;;;;;;3.17;2.33;;;21.00;78.80;;;;;;5010893;28;20170;-81
2021/08/17 08:43:03;;;;;;;2.90;2.30;;;21.00;78.70;;;;;;5006590;28;20570;-81
2021/08/17 08:45:34;;;;;;;2.53;2.33;;;21.00;78.70;;;;;;5000159;28;20192;-81
2021/08/17 08:47:59;;;;;;;4.38;2.50;;;21.00;79.10;;;;;;4973261;28;20188;-81
2021/08/17 08:50:29;;;;;;;2.45;2.17;;;20.90;79.60;;;;;;5006368;28;20226;-80
2021/08/17 08:52:58;;;;;;;2.65;2.33;;;21.00;79.00;;;;;;4991218;28;20249;-81
2021/08/17 08:55:26;;;;;;;2.80;2.60;;;21.10;78.40;;;;;;4990508;28;20187;-80
2021/08/17 08:57:56;;;;;;;2.47;2.28;;;21.20;77.90;;;;;;4989324;28;20180;-80
2021/08/17 09:00:23;;;;;;;2.65;2.45;;;21.10;77.90;;;;;;4974131;28;20196;-80
2021/08/17 09:02:51;;;;;;;2.70;2.50;;;21.10;77.60;;;;;;4989636;28;20180;-79
2021/08/17 09:05:27;;;;;;;2.50;2.30;;;21.10;78.00;;;;;;4989980;28;20622;-81
2021/08/17 09:07:56;;;;;;;2.92;2.50;;;21.00;78.70;;;;;;4987795;28;20190;-81
2021/08/17 09:10:25;;;;;;;2.58;2.38;;;21.10;78.40;;;;;;4973479;28;20179;-81
2021/08/17 09:12:59;;;;;;;2.65;2.45;;;21.00;77.90;;;;;;4987421;28;20232;-79
2021/08/17 09:15:31;;;;;;;3.42;2.78;;;20.90;78.30;;;;;;5007294;28;20588;-81
2021/08/17 09:18:07;;;;;;;2.55;2.25;;;20.90;78.20;;;;;;4990941;28;20665;-80
2021/08/17 09:20:42;;;;;;;2.75;2.53;;;21.00;77.70;;;;;;5091423;28;20186;-80
2021/08/17 09:23:23;;;;;;;2.47;2.28;;;20.90;78.00;;;;;;5057109;28;20187;-80
2021/08/17 09:25:54;;;;;;;2.58;2.38;;;21.00;77.40;;;;;;5008045;28;20160;-80
2021/08/17 09:28:31;;;;;;;3.22;2.72;;;20.90;77.20;;;;;;5075056;28;20179;-82
2021/08/17 09:30:58;;;;;;;3.28;2.10;;;21.00;77.40;;;;;;5006769;28;20168;-80
2021/08/17 09:33:35;;;;;;;2.30;2.10;;;20.90;77.50;;;;;;5025201;28;20187;-80
2021/08/17 09:36:05;;;;;;;2.78;2.35;;;21.00;77.50;;;;;;5008002;28;20174;-80
2021/08/17 09:38:32;;;;;;;3.70;2.03;;;21.10;77.10;;;;;;5091267;28;20196;-80
2021/08/17 09:40:59;;;;;;;2.30;2.10;;;21.00;76.50;;;;;;5024267;28;20564;-80
2021/08/17 09:43:31;;;;;;;2.53;2.33;;;21.00;76.30;;;;;;5007208;28;20193;-80
2021/08/17 09:45:58;;;;;;;2.10;1.98;;;21.10;76.90;;;;;;5057560;28;20180;-81
2021/08/17 09:48:31;;;;;;;2.30;2.10;;;21.10;77.50;;;;;;5024896;28;20152;-80
2021/08/17 09:50:57;;;;;;;2.47;2.28;;;21.00;77.60;;;;;;5075441;28;20201;-80
2021/08/17 09:53:23;;;;;;;2.38;2.17;;;20.90;77.60;;;;;;5022865;28;20198;-79
2021/08/17 09:55:55;;;;;;;2.63;2.15;;;20.90;77.30;;;;;;5023861;28;20166;-80
2021/08/17 09:58:31;;;;;;;3.42;2.50;;;20.80;77.50;;;;;;5024143;28;20183;-80
2021/08/17 10:01:05;;;;;;;3.05;2.20;;;20.70;78.20;;;;;;5023549;28;20179;-80
2021/08/17 10:03:36;;;;;;;2.13;2.03;;;20.70;78.60;;;;;;5074740;28;20351;-80
2021/08/17 10:06:02;;;;;;;2.10;2.00;;;20.70;78.20;;;;;;5006892;28;20186;-81
2021/08/17 10:08:35;;;;;;;2.03;1.83;;;20.70;78.30;;;;;;5006360;28;20163;-80
2021/08/17 10:11:06;;;;;;;2.47;2.28;;;20.70;78.20;;;;;;4990809;28;20218;-81
2021/08/17 10:13:32;;;;;;;2.22;2.03;;;20.70;78.70;;;;;;4998364;28;20234;-80
2021/08/17 10:15:58;;;;;;;2.38;2.10;;;20.60;79.00;;;;;;5026961;28;20167;-85
2021/08/17 10:18:27;;;;;;;2.58;2.28;;;20.60;79.00;;;;;;5043162;28;20206;-80
2021/08/17 10:20:58;;;;;;;2.60;2.33;;;20.50;79.00;;;;;;5043274;28;20155;-80
2021/08/17 10:23:30;;;;;;;2.47;2.20;;;20.50;79.20;;;;;;5094938;28;20191;-80
2021/08/17 10:26:01;;;;;;;2.50;2.10;;;20.40;79.50;;;;;;5042553;28;20187;-80
2021/08/17 10:28:36;;;;;;;2.75;2.00;;;20.30;79.60;;;;;;5009520;28;20179;-80
2021/08/17 10:31:21;;;;;;;3.13;2.45;;;20.30;79.70;;;;;;5061188;28;20213;-80
2021/08/17 10:33:54;;;;;;;2.47;2.20;;;20.30;80.30;;;;;;5023993;28;20653;-80
2021/08/17 10:36:41;;;;;;;3.05;2.40;;;20.20;80.00;;;;;;5023006;28;20191;-79
2021/08/17 10:39:27;;;;;;;3.05;2.47;;;20.20;80.00;;;;;;5023558;28;20156;-79
2021/08/17 10:41:54;;;;;;;2.40;2.20;;;20.20;80.20;;;;;;5022475;28;20274;-81
2021/08/17 10:44:21;;;;;;;3.67;2.40;;;20.20;80.20;;;;;;5002832;28;20239;-83
2021/08/17 10:46:53;;;;;;;2.30;2.08;;;20.20;80.10;;;;;;5004252;28;20171;-80
2021/08/17 10:49:24;;;;;;;2.25;2.05;;;20.20;80.20;;;;;;5017103;28;20183;-80
2021/08/17 10:51:56;;;;;;;2.35;2.15;;;20.20;80.20;;;;;;5020409;28;20195;-80
2021/08/17 10:54:23;;;;;;;2.28;2.08;;;20.20;80.30;;;;;;5019473;28;20183;-80
2021/08/17 10:56:50;;;;;;;2.65;2.40;;;20.20;80.40;;;;;;5003772;28;20181;-81
2021/08/17 10:59:36;;;;;;;2.35;2.13;;;20.20;80.70;;;;;;5017590;28;20166;-83
2021/08/17 11:02:43;;;;;;;2.70;2.50;;;20.20;80.60;;;;;;5021472;28;20156;-82
2021/08/17 11:05:42;;;;;;;2.58;2.30;;;20.10;80.50;;;;;;4989044;28;20660;-80
2021/08/17 11:08:45;;;;;;;2.65;2.28;;;20.20;80.50;;;;;;5059797;28;20251;-81
2021/08/17 11:11:19;;;;;;;2.03;1.83;;;20.10;80.60;;;;;;5014418;28;20187;-85
2021/08/17 11:14:18;;;;;;;3.35;2.42;;;20.10;80.50;;;;;;5014845;28;20257;-81
2021/08/17 11:16:52;;;;;;;2.20;1.95;;;20.10;80.50;;;;;;5083566;28;20236;-80
2021/08/17 11:19:31;;;;;;;2.40;2.20;;;20.20;80.60;;;;;;5082441;28;20190;-80
2021/08/17 11:22:02;;;;;;;4.07;2.00;;;20.10;80.60;;;;;;5015339;28;20179;-80
2021/08/17 11:24:39;;;;;;;3.13;2.17;;;20.10;80.60;;;;;;5015687;28;20159;-80
2021/08/17 11:27:17;;;;;;;6.63;2.15;;;20.10;80.50;;;;;;5067263;28;20189;-80
2021/08/17 11:30:06;;;;;;;3.67;1.88;;;20.10;80.50;;;;;;5063178;28;20183;-82
2021/08/17 11:32:40;;;;;;;2.40;2.10;;;20.10;80.20;;;;;;4995901;28;20648;-77
2021/08/17 11:35:18;;;;;;;3.35;2.20;;;20.10;80.30;;;;;;4963727;28;20179;-80
2021/08/17 11:37:56;;;;;;;4.30;2.13;;;20.10;80.20;;;;;;4961032;28;20184;-77
2021/08/17 11:40:30;;;;;;;5.65;2.30;;;20.10;80.20;;;;;;4962132;28;20187;-79
2021/08/17 11:43:04;;;;;;;2.83;2.17;;;20.10;80.10;;;;;;4969984;28;20525;-78
2021/08/17 11:45:39;;;;;;;3.10;2.20;;;20.10;80.10;;;;;;4953353;28;20253;-78
2021/08/17 11:48:11;;;;;;;3.30;2.30;;;20.10;80.10;;;;;;4983275;28;20650;-80
2021/08/17 11:50:43;;;;;;;3.70;2.00;;;20.10;81.10;;;;;;4950188;28;20270;-77
2021/08/17 11:53:15;;;;;;;3.00;2.20;;;20.10;80.00;;;;;;4979702;28;20267;-80
2021/08/17 11:55:43;;;;;;;5.20;2.00;;;20.10;80.00;;;;;;4965180;28;20165;-78
2021/08/17 11:58:12;;;;;;;4.60;2.10;;;20.00;80.10;;;;;;4965078;28;20192;-83
2021/08/17 12:00:41;;;;;;;2.55;2.10;;;20.00;80.00;;;;;;4944332;28;20252;-79
2021/08/17 12:03:09;;;;;;;2.55;2.35;;;20.10;80.00;;;;;;4967349;28;20197;-78
2021/08/17 12:05:39;;;;;;;2.58;2.30;;;20.10;79.90;;;;;;4966510;28;20243;-79
2021/08/17 12:08:10;;;;;;;2.42;2.15;;;20.10;80.00;;;;;;4958615;28;20184;-79
2021/08/17 12:10:39;;;;;;;2.80;2.25;;;20.10;80.10;;;;;;4957955;28;20184;-82
2021/08/17 12:13:11;;;;;;;3.95;2.28;;;20.00;80.10;;;;;;4957804;28;20273;-82
2021/08/17 12:15:43;;;;;;;3.53;2.38;;;20.00;80.10;;;;;;4979856;28;20164;-78
2021/08/17 12:18:19;;;;;;;2.50;2.30;;;20.00;80.10;;;;;;4977840;28;20224;-79
2021/08/17 12:20:57;;;;;;;3.45;2.10;;;20.00;80.20;;;;;;4979580;28;20518;-80
2021/08/17 12:23:35;;;;;;;3.15;2.22;;;20.00;80.20;;;;;;4959272;28;20183;-83
2021/08/17 12:26:15;;;;;;;2.50;2.30;;;20.10;80.30;;;;;;4974960;28;20161;-83
2021/08/17 12:28:46;;;;;;;2.83;2.00;;;20.00;80.30;;;;;;4959724;28;20247;-78
2021/08/17 12:31:18;;;;;;;2.72;2.00;;;20.00;80.10;;;;;;4964032;28;20636;-80
2021/08/17 12:33:59;;;;;;;3.20;2.17;;;20.10;80.10;;;;;;4973035;28;20169;-83
2021/08/17 12:36:47;;;;;;;4.03;2.35;;;20.00;79.90;;;;;;4972704;28;20168;-83
2021/08/17 12:39:25;;;;;;;3.00;2.35;;;20.00;79.70;;;;;;4972481;28;20172;-83
2021/08/17 12:41:53;;;;;;;2.58;2.30;;;20.10;79.70;;;;;;4972503;28;20169;-83
2021/08/17 12:44:31;;;;;;;5.03;2.20;;;20.00;79.60;;;;;;4972669;28;20646;-83
2021/08/17 12:47:14;;;;;;;3.83;2.03;;;20.10;79.60;;;;;;4972632;28;20161;-82
2021/08/17 12:50:00;;;;;;;4.55;2.38;;;20.00;79.40;;;;;;4966914;28;20264;-80
2021/08/17 12:52:46;;;;;;;2.33;2.00;;;20.00;79.40;;;;;;4900255;28;20294;-80
2021/08/17 12:55:18;;;;;;;3.42;2.20;;;20.00;79.10;;;;;;4946350;28;20192;-82
2021/08/17 12:57:47;;;;;;;2.17;1.98;;;20.00;78.90;;;;;;4978701;28;20180;-79
2021/08/17 13:00:15;;;;;;;2.53;2.03;;;20.00;78.90;;;;;;4992570;28;20164;-80